sensor_id;sensor_type;location;lat;lon;timestamp;P1;durP1;ratioP1;P2;durP2;ratioP2
64678;SDS011;51094;53.864;27.676;2023-07-22T00:01:58;0.68;;;0.68;;
64678;SDS011;51094;53.864;27.676;2023-07-22T00:04:25;0.65;;;0.65;;
64678;SDS011;51094;53.864;27.676;2023-07-22T00:06:52;0.65;;;0.65;;
64678;SDS011;51094;53.864;27.676;2023-07-22T00:09:19;0.70;;;0.70;;
64678;SDS011;51094;53.864;27.676;2023-07-22T00:11:46;0.70;;;0.70;;
64678;SDS011;51094;53.864;27.676;2023-07-22T00:14:15;0.70;;;0.70;;
64678;SDS011;51094;53.864;27.676;2023-07-22T00:16:42;0.73;;;0.73;;
64678;SDS011;51094;53.864;27.676;2023-07-22T00:19:09;0.60;;;0.60;;
64678;SDS011;51094;53.864;27.676;2023-07-22T00:21:36;0.82;;;0.82;;
64678;SDS011;51094;53.864;27.676;2023-07-22T00:24:03;0.70;;;0.70;;
64678;SDS011;51094;53.864;27.676;2023-07-22T00:26:31;0.73;;;0.73;;
64678;SDS011;51094;53.864;27.676;2023-07-22T00:28:57;1.10;;;1.10;;
64678;SDS011;51094;53.864;27.676;2023-07-22T00:31:24;0.95;;;0.95;;
64678;SDS011;51094;53.864;27.676;2023-07-22T00:33:51;0.80;;;0.80;;
64678;SDS011;51094;53.864;27.676;2023-07-22T00:36:18;0.70;;;0.70;;
64678;SDS011;51094;53.864;27.676;2023-07-22T00:38:45;0.70;;;0.70;;
64678;SDS011;51094;53.864;27.676;2023-07-22T00:41:12;0.70;;;0.70;;
64678;SDS011;51094;53.864;27.676;2023-07-22T00:43:38;0.70;;;0.70;;
64678;SDS011;51094;53.864;27.676;2023-07-22T00:46:05;0.75;;;0.75;;
64678;SDS011;51094;53.864;27.676;2023-07-22T00:48:32;0.75;;;0.75;;
64678;SDS011;51094;53.864;27.676;2023-07-22T00:50:59;0.70;;;0.70;;
64678;SDS011;51094;53.864;27.676;2023-07-22T00:53:26;0.70;;;0.70;;
64678;SDS011;51094;53.864;27.676;2023-07-22T00:55:54;0.95;;;0.95;;
64678;SDS011;51094;53.864;27.676;2023-07-22T00:58:21;0.70;;;0.70;;
64678;SDS011;51094;53.864;27.676;2023-07-22T01:00:48;0.70;;;0.70;;
64678;SDS011;51094;53.864;27.676;2023-07-22T01:03:15;0.65;;;0.65;;
64678;SDS011;51094;53.864;27.676;2023-07-22T01:05:42;0.80;;;0.80;;
64678;SDS011;51094;53.864;27.676;2023-07-22T01:08:09;0.77;;;0.77;;
64678;SDS011;51094;53.864;27.676;2023-07-22T01:10:36;0.80;;;0.80;;
64678;SDS011;51094;53.864;27.676;2023-07-22T01:13:03;0.82;;;0.82;;
64678;SDS011;51094;53.864;27.676;2023-07-22T01:15:30;0.80;;;0.80;;
64678;SDS011;51094;53.864;27.676;2023-07-22T01:17:57;0.80;;;0.80;;
64678;SDS011;51094;53.864;27.676;2023-07-22T01:20:28;0.90;;;0.90;;
64678;SDS011;51094;53.864;27.676;2023-07-22T01:22:56;0.80;;;0.80;;
64678;SDS011;51094;53.864;27.676;2023-07-22T01:25:23;0.73;;;0.73;;
64678;SDS011;51094;53.864;27.676;2023-07-22T01:27:51;1.00;;;1.00;;
64678;SDS011;51094;53.864;27.676;2023-07-22T01:30:18;1.40;;;1.40;;
64678;SDS011;51094;53.864;27.676;2023-07-22T01:32:49;1.08;;;1.08;;
64678;SDS011;51094;53.864;27.676;2023-07-22T01:35:17;1.05;;;1.05;;
64678;SDS011;51094;53.864;27.676;2023-07-22T01:37:44;1.10;;;1.10;;
64678;SDS011;51094;53.864;27.676;2023-07-22T01:40:11;1.20;;;1.20;;
64678;SDS011;51094;53.864;27.676;2023-07-22T01:42:39;0.90;;;0.90;;
64678;SDS011;51094;53.864;27.676;2023-07-22T01:45:07;0.93;;;0.93;;
64678;SDS011;51094;53.864;27.676;2023-07-22T01:47:35;0.90;;;0.90;;
64678;SDS011;51094;53.864;27.676;2023-07-22T01:50:02;0.95;;;0.95;;
64678;SDS011;51094;53.864;27.676;2023-07-22T01:52:30;1.00;;;1.00;;
64678;SDS011;51094;53.864;27.676;2023-07-22T01:54:57;0.95;;;0.95;;
64678;SDS011;51094;53.864;27.676;2023-07-22T01:57:24;0.90;;;0.90;;
64678;SDS011;51094;53.864;27.676;2023-07-22T01:59:51;1.00;;;1.00;;
64678;SDS011;51094;53.864;27.676;2023-07-22T02:02:18;1.50;;;1.50;;
64678;SDS011;51094;53.864;27.676;2023-07-22T02:04:45;0.98;;;0.98;;
64678;SDS011;51094;53.864;27.676;2023-07-22T02:07:12;1.00;;;1.00;;
64678;SDS011;51094;53.864;27.676;2023-07-22T02:09:39;1.02;;;1.02;;
64678;SDS011;51094;53.864;27.676;2023-07-22T02:12:08;1.30;;;1.30;;
64678;SDS011;51094;53.864;27.676;2023-07-22T02:14:35;1.00;;;1.00;;
64678;SDS011;51094;53.864;27.676;2023-07-22T02:17:03;1.10;;;1.10;;
64678;SDS011;51094;53.864;27.676;2023-07-22T02:19:31;1.10;;;1.10;;
64678;SDS011;51094;53.864;27.676;2023-07-22T02:21:58;1.08;;;1.08;;
64678;SDS011;51094;53.864;27.676;2023-07-22T02:24:26;1.00;;;1.00;;
64678;SDS011;51094;53.864;27.676;2023-07-22T02:26:53;1.00;;;1.00;;
64678;SDS011;51094;53.864;27.676;2023-07-22T02:29:20;1.05;;;1.05;;
64678;SDS011;51094;53.864;27.676;2023-07-22T02:31:47;1.17;;;1.17;;
64678;SDS011;51094;53.864;27.676;2023-07-22T02:34:14;1.20;;;1.20;;
64678;SDS011;51094;53.864;27.676;2023-07-22T02:36:41;1.15;;;1.15;;
64678;SDS011;51094;53.864;27.676;2023-07-22T02:39:08;1.35;;;1.35;;
64678;SDS011;51094;53.864;27.676;2023-07-22T02:41:39;1.58;;;1.58;;
64678;SDS011;51094;53.864;27.676;2023-07-22T02:44:06;1.50;;;1.50;;
64678;SDS011;51094;53.864;27.676;2023-07-22T02:46:33;1.75;;;1.75;;
64678;SDS011;51094;53.864;27.676;2023-07-22T02:49:00;1.90;;;1.90;;
64678;SDS011;51094;53.864;27.676;2023-07-22T02:51:27;1.83;;;1.80;;
64678;SDS011;51094;53.864;27.676;2023-07-22T02:53:54;2.15;;;2.15;;
64678;SDS011;51094;53.864;27.676;2023-07-22T02:56:21;1.98;;;1.98;;
64678;SDS011;51094;53.864;27.676;2023-07-22T02:58:48;1.77;;;1.77;;
64678;SDS011;51094;53.864;27.676;2023-07-22T03:01:15;1.77;;;1.77;;
64678;SDS011;51094;53.864;27.676;2023-07-22T03:03:42;1.90;;;1.90;;
64678;SDS011;51094;53.864;27.676;2023-07-22T03:06:09;1.65;;;1.65;;
64678;SDS011;51094;53.864;27.676;2023-07-22T03:08:36;1.80;;;1.80;;
64678;SDS011;51094;53.864;27.676;2023-07-22T03:11:03;1.88;;;1.88;;
64678;SDS011;51094;53.864;27.676;2023-07-22T03:13:31;2.40;;;2.30;;
64678;SDS011;51094;53.864;27.676;2023-07-22T03:15:58;3.47;;;3.25;;
64678;SDS011;51094;53.864;27.676;2023-07-22T03:18:25;4.20;;;3.90;;
64678;SDS011;51094;53.864;27.676;2023-07-22T03:20:52;4.15;;;3.95;;
64678;SDS011;51094;53.864;27.676;2023-07-22T03:23:19;4.30;;;4.00;;
64678;SDS011;51094;53.864;27.676;2023-07-22T03:25:47;4.57;;;4.18;;
64678;SDS011;51094;53.864;27.676;2023-07-22T03:28:14;4.57;;;4.28;;
64678;SDS011;51094;53.864;27.676;2023-07-22T03:30:41;4.55;;;4.15;;
64678;SDS011;51094;53.864;27.676;2023-07-22T03:33:09;5.10;;;4.70;;
64678;SDS011;51094;53.864;27.676;2023-07-22T03:35:37;4.88;;;4.57;;
64678;SDS011;51094;53.864;27.676;2023-07-22T03:38:05;4.20;;;3.80;;
64678;SDS011;51094;53.864;27.676;2023-07-22T03:40:32;4.05;;;3.85;;
64678;SDS011;51094;53.864;27.676;2023-07-22T03:42:59;3.17;;;2.97;;
64678;SDS011;51094;53.864;27.676;2023-07-22T03:45:26;4.18;;;3.88;;
64678;SDS011;51094;53.864;27.676;2023-07-22T03:47:56;3.30;;;3.10;;
64678;SDS011;51094;53.864;27.676;2023-07-22T03:50:25;3.10;;;2.90;;
64678;SDS011;51094;53.864;27.676;2023-07-22T03:52:52;3.10;;;2.90;;
64678;SDS011;51094;53.864;27.676;2023-07-22T03:55:19;3.05;;;2.85;;
64678;SDS011;51094;53.864;27.676;2023-07-22T03:57:46;3.30;;;3.10;;
64678;SDS011;51094;53.864;27.676;2023-07-22T04:00:13;3.13;;;2.92;;
64678;SDS011;51094;53.864;27.676;2023-07-22T04:02:41;3.17;;;3.05;;
64678;SDS011;51094;53.864;27.676;2023-07-22T04:05:08;3.00;;;2.90;;
64678;SDS011;51094;53.864;27.676;2023-07-22T04:07:36;3.25;;;3.15;;
64678;SDS011;51094;53.864;27.676;2023-07-22T04:10:03;3.15;;;3.05;;
64678;SDS011;51094;53.864;27.676;2023-07-22T04:12:31;3.40;;;3.20;;
64678;SDS011;51094;53.864;27.676;2023-07-22T04:14:58;3.55;;;3.45;;
64678;SDS011;51094;53.864;27.676;2023-07-22T04:17:27;3.83;;;3.73;;
64678;SDS011;51094;53.864;27.676;2023-07-22T04:19:55;4.22;;;4.03;;
64678;SDS011;51094;53.864;27.676;2023-07-22T04:22:22;3.70;;;3.50;;
64678;SDS011;51094;53.864;27.676;2023-07-22T04:24:50;4.05;;;3.85;;
64678;SDS011;51094;53.864;27.676;2023-07-22T04:27:19;3.80;;;3.60;;
64678;SDS011;51094;53.864;27.676;2023-07-22T04:29:46;3.60;;;3.50;;
64678;SDS011;51094;53.864;27.676;2023-07-22T04:32:13;3.70;;;3.58;;
64678;SDS011;51094;53.864;27.676;2023-07-22T04:34:40;3.60;;;3.50;;
64678;SDS011;51094;53.864;27.676;2023-07-22T04:37:07;3.60;;;3.40;;
64678;SDS011;51094;53.864;27.676;2023-07-22T04:39:34;3.60;;;3.50;;
64678;SDS011;51094;53.864;27.676;2023-07-22T04:42:02;3.40;;;3.30;;
64678;SDS011;51094;53.864;27.676;2023-07-22T04:44:29;3.00;;;3.00;;
64678;SDS011;51094;53.864;27.676;2023-07-22T04:46:56;3.00;;;3.00;;
64678;SDS011;51094;53.864;27.676;2023-07-22T04:49:23;2.70;;;2.67;;
64678;SDS011;51094;53.864;27.676;2023-07-22T04:51:50;2.80;;;2.80;;
64678;SDS011;51094;53.864;27.676;2023-07-22T04:54:17;2.90;;;2.80;;
64678;SDS011;51094;53.864;27.676;2023-07-22T04:56:45;2.40;;;2.40;;
64678;SDS011;51094;53.864;27.676;2023-07-22T04:59:12;2.10;;;2.10;;
64678;SDS011;51094;53.864;27.676;2023-07-22T05:01:40;1.70;;;1.70;;
64678;SDS011;51094;53.864;27.676;2023-07-22T05:04:08;1.92;;;1.92;;
64678;SDS011;51094;53.864;27.676;2023-07-22T05:06:35;1.40;;;1.40;;
64678;SDS011;51094;53.864;27.676;2023-07-22T05:09:02;1.40;;;1.40;;
64678;SDS011;51094;53.864;27.676;2023-07-22T05:11:30;1.40;;;1.40;;
64678;SDS011;51094;53.864;27.676;2023-07-22T05:13:57;1.40;;;1.40;;
64678;SDS011;51094;53.864;27.676;2023-07-22T05:16:24;1.30;;;1.30;;
64678;SDS011;51094;53.864;27.676;2023-07-22T05:18:52;1.23;;;1.23;;
64678;SDS011;51094;53.864;27.676;2023-07-22T05:21:19;1.33;;;1.33;;
64678;SDS011;51094;53.864;27.676;2023-07-22T05:23:46;1.30;;;1.30;;
64678;SDS011;51094;53.864;27.676;2023-07-22T05:26:13;1.13;;;1.13;;
64678;SDS011;51094;53.864;27.676;2023-07-22T05:28:40;1.08;;;1.08;;
64678;SDS011;51094;53.864;27.676;2023-07-22T05:31:07;1.00;;;1.00;;
64678;SDS011;51094;53.864;27.676;2023-07-22T05:33:34;1.00;;;1.00;;
64678;SDS011;51094;53.864;27.676;2023-07-22T05:36:02;1.00;;;1.00;;
64678;SDS011;51094;53.864;27.676;2023-07-22T05:38:29;0.80;;;0.80;;
64678;SDS011;51094;53.864;27.676;2023-07-22T05:40:58;1.02;;;1.02;;
64678;SDS011;51094;53.864;27.676;2023-07-22T05:43:25;1.10;;;1.10;;
64678;SDS011;51094;53.864;27.676;2023-07-22T05:45:51;0.90;;;0.90;;
64678;SDS011;51094;53.864;27.676;2023-07-22T05:48:18;0.88;;;0.88;;
64678;SDS011;51094;53.864;27.676;2023-07-22T05:50:45;0.90;;;0.90;;
64678;SDS011;51094;53.864;27.676;2023-07-22T05:53:13;0.90;;;0.90;;
64678;SDS011;51094;53.864;27.676;2023-07-22T05:55:40;0.90;;;0.90;;
64678;SDS011;51094;53.864;27.676;2023-07-22T05:58:07;1.00;;;1.00;;
64678;SDS011;51094;53.864;27.676;2023-07-22T06:00:42;0.82;;;0.82;;
64678;SDS011;51094;53.864;27.676;2023-07-22T06:03:09;1.00;;;1.00;;
64678;SDS011;51094;53.864;27.676;2023-07-22T06:05:36;1.15;;;1.15;;
64678;SDS011;51094;53.864;27.676;2023-07-22T06:08:03;0.95;;;0.95;;
64678;SDS011;51094;53.864;27.676;2023-07-22T06:10:31;1.00;;;1.00;;
64678;SDS011;51094;53.864;27.676;2023-07-22T06:12:58;0.95;;;0.95;;
64678;SDS011;51094;53.864;27.676;2023-07-22T06:15:25;1.10;;;1.10;;
64678;SDS011;51094;53.864;27.676;2023-07-22T06:17:52;1.00;;;1.00;;
64678;SDS011;51094;53.864;27.676;2023-07-22T06:20:19;1.25;;;1.25;;
64678;SDS011;51094;53.864;27.676;2023-07-22T06:22:46;1.20;;;1.20;;
64678;SDS011;51094;53.864;27.676;2023-07-22T06:25:13;1.00;;;1.00;;
64678;SDS011;51094;53.864;27.676;2023-07-22T06:27:40;1.00;;;1.00;;
64678;SDS011;51094;53.864;27.676;2023-07-22T06:30:07;0.80;;;0.80;;
64678;SDS011;51094;53.864;27.676;2023-07-22T06:32:38;0.90;;;0.90;;
64678;SDS011;51094;53.864;27.676;2023-07-22T06:35:05;1.00;;;1.00;;
64678;SDS011;51094;53.864;27.676;2023-07-22T06:37:32;1.00;;;1.00;;
64678;SDS011;51094;53.864;27.676;2023-07-22T06:40:00;0.90;;;0.90;;
64678;SDS011;51094;53.864;27.676;2023-07-22T06:42:28;0.98;;;0.98;;
64678;SDS011;51094;53.864;27.676;2023-07-22T06:44:56;0.85;;;0.85;;
64678;SDS011;51094;53.864;27.676;2023-07-22T06:47:23;0.82;;;0.82;;
64678;SDS011;51094;53.864;27.676;2023-07-22T06:49:50;0.70;;;0.70;;
64678;SDS011;51094;53.864;27.676;2023-07-22T06:54:46;0.80;;;0.80;;
64678;SDS011;51094;53.864;27.676;2023-07-22T06:57:13;0.90;;;0.90;;
64678;SDS011;51094;53.864;27.676;2023-07-22T06:59:40;0.80;;;0.80;;
64678;SDS011;51094;53.864;27.676;2023-07-22T07:02:08;0.90;;;0.90;;
64678;SDS011;51094;53.864;27.676;2023-07-22T07:04:35;0.68;;;0.68;;
64678;SDS011;51094;53.864;27.676;2023-07-22T07:07:02;0.70;;;0.70;;
64678;SDS011;51094;53.864;27.676;2023-07-22T07:09:29;0.70;;;0.70;;
64678;SDS011;51094;53.864;27.676;2023-07-22T07:11:56;0.60;;;0.60;;
64678;SDS011;51094;53.864;27.676;2023-07-22T07:14:24;0.52;;;0.52;;
64678;SDS011;51094;53.864;27.676;2023-07-22T07:16:51;0.63;;;0.63;;
64678;SDS011;51094;53.864;27.676;2023-07-22T07:19:18;0.50;;;0.50;;
64678;SDS011;51094;53.864;27.676;2023-07-22T07:21:45;0.65;;;0.65;;
64678;SDS011;51094;53.864;27.676;2023-07-22T07:24:12;0.60;;;0.60;;
64678;SDS011;51094;53.864;27.676;2023-07-22T07:26:39;0.50;;;0.50;;
64678;SDS011;51094;53.864;27.676;2023-07-22T07:29:06;0.50;;;0.50;;
64678;SDS011;51094;53.864;27.676;2023-07-22T07:31:33;0.50;;;0.50;;
64678;SDS011;51094;53.864;27.676;2023-07-22T07:34:01;0.60;;;0.60;;
64678;SDS011;51094;53.864;27.676;2023-07-22T07:36:28;0.60;;;0.60;;
64678;SDS011;51094;53.864;27.676;2023-07-22T07:38:55;0.50;;;0.50;;
64678;SDS011;51094;53.864;27.676;2023-07-22T07:41:22;0.65;;;0.65;;
64678;SDS011;51094;53.864;27.676;2023-07-22T07:43:49;0.77;;;0.77;;
64678;SDS011;51094;53.864;27.676;2023-07-22T07:46:17;0.60;;;0.60;;
64678;SDS011;51094;53.864;27.676;2023-07-22T07:48:55;0.50;;;0.50;;
64678;SDS011;51094;53.864;27.676;2023-07-22T07:53:51;0.55;;;0.55;;
64678;SDS011;51094;53.864;27.676;2023-07-22T07:56:18;0.60;;;0.60;;
64678;SDS011;51094;53.864;27.676;2023-07-22T07:58:46;0.63;;;0.63;;
64678;SDS011;51094;53.864;27.676;2023-07-22T08:03:46;0.60;;;0.60;;
64678;SDS011;51094;53.864;27.676;2023-07-22T08:06:13;0.70;;;0.70;;
64678;SDS011;51094;53.864;27.676;2023-07-22T08:08:44;0.63;;;0.63;;
64678;SDS011;51094;53.864;27.676;2023-07-22T08:11:11;0.65;;;0.65;;
64678;SDS011;51094;53.864;27.676;2023-07-22T08:13:42;0.57;;;0.57;;
64678;SDS011;51094;53.864;27.676;2023-07-22T08:16:11;0.70;;;0.70;;
64678;SDS011;51094;53.864;27.676;2023-07-22T08:18:39;0.70;;;0.70;;
64678;SDS011;51094;53.864;27.676;2023-07-22T08:21:06;0.60;;;0.60;;
64678;SDS011;51094;53.864;27.676;2023-07-22T08:23:34;0.55;;;0.55;;
64678;SDS011;51094;53.864;27.676;2023-07-22T08:26:03;0.50;;;0.50;;
64678;SDS011;51094;53.864;27.676;2023-07-22T08:28:34;0.80;;;0.80;;
64678;SDS011;51094;53.864;27.676;2023-07-22T08:31:01;0.50;;;0.50;;
64678;SDS011;51094;53.864;27.676;2023-07-22T08:33:28;0.57;;;0.57;;
64678;SDS011;51094;53.864;27.676;2023-07-22T08:36:08;0.50;;;0.50;;
64678;SDS011;51094;53.864;27.676;2023-07-22T08:38:36;0.60;;;0.60;;
64678;SDS011;51094;53.864;27.676;2023-07-22T08:41:03;0.80;;;0.80;;
64678;SDS011;51094;53.864;27.676;2023-07-22T08:43:30;0.55;;;0.55;;
64678;SDS011;51094;53.864;27.676;2023-07-22T08:46:00;0.60;;;0.60;;
64678;SDS011;51094;53.864;27.676;2023-07-22T08:48:31;0.57;;;0.57;;
64678;SDS011;51094;53.864;27.676;2023-07-22T08:51:04;0.57;;;0.57;;
64678;SDS011;51094;53.864;27.676;2023-07-22T08:53:33;0.50;;;0.50;;
64678;SDS011;51094;53.864;27.676;2023-07-22T08:56:00;0.45;;;0.45;;
64678;SDS011;51094;53.864;27.676;2023-07-22T08:58:29;0.50;;;0.50;;
64678;SDS011;51094;53.864;27.676;2023-07-22T09:00:56;0.50;;;0.50;;
64678;SDS011;51094;53.864;27.676;2023-07-22T09:03:26;0.50;;;0.50;;
64678;SDS011;51094;53.864;27.676;2023-07-22T09:05:53;0.57;;;0.57;;
64678;SDS011;51094;53.864;27.676;2023-07-22T09:08:21;0.47;;;0.47;;
64678;SDS011;51094;53.864;27.676;2023-07-22T09:10:48;0.70;;;0.70;;
64678;SDS011;51094;53.864;27.676;2023-07-22T09:13:15;0.47;;;0.47;;
64678;SDS011;51094;53.864;27.676;2023-07-22T09:18:11;0.45;;;0.45;;
64678;SDS011;51094;53.864;27.676;2023-07-22T09:20:38;0.40;;;0.40;;
64678;SDS011;51094;53.864;27.676;2023-07-22T09:23:05;0.47;;;0.43;;
64678;SDS011;51094;53.864;27.676;2023-07-22T09:25:40;0.40;;;0.40;;
64678;SDS011;51094;53.864;27.676;2023-07-22T09:28:08;0.50;;;0.50;;
64678;SDS011;51094;53.864;27.676;2023-07-22T09:30:37;0.40;;;0.40;;
64678;SDS011;51094;53.864;27.676;2023-07-22T09:33:06;0.50;;;0.50;;
64678;SDS011;51094;53.864;27.676;2023-07-22T09:35:45;0.85;;;0.55;;
64678;SDS011;51094;53.864;27.676;2023-07-22T09:38:14;0.47;;;0.47;;
64678;SDS011;51094;53.864;27.676;2023-07-22T09:40:43;0.50;;;0.50;;
64678;SDS011;51094;53.864;27.676;2023-07-22T09:43:12;0.50;;;0.50;;
64678;SDS011;51094;53.864;27.676;2023-07-22T09:45:38;0.43;;;0.43;;
64678;SDS011;51094;53.864;27.676;2023-07-22T09:48:05;0.40;;;0.40;;
64678;SDS011;51094;53.864;27.676;2023-07-22T09:50:36;0.50;;;0.50;;
64678;SDS011;51094;53.864;27.676;2023-07-22T09:53:03;0.50;;;0.50;;
64678;SDS011;51094;53.864;27.676;2023-07-22T09:55:31;0.52;;;0.52;;
64678;SDS011;51094;53.864;27.676;2023-07-22T09:58:03;0.40;;;0.40;;
64678;SDS011;51094;53.864;27.676;2023-07-22T10:00:36;0.40;;;0.40;;
64678;SDS011;51094;53.864;27.676;2023-07-22T10:03:04;0.40;;;0.35;;
64678;SDS011;51094;53.864;27.676;2023-07-22T10:05:39;0.40;;;0.40;;
64678;SDS011;51094;53.864;27.676;2023-07-22T10:08:09;0.35;;;0.35;;
64678;SDS011;51094;53.864;27.676;2023-07-22T10:10:37;0.30;;;0.30;;
64678;SDS011;51094;53.864;27.676;2023-07-22T10:13:05;0.50;;;0.50;;
64678;SDS011;51094;53.864;27.676;2023-07-22T10:15:33;0.40;;;0.40;;
64678;SDS011;51094;53.864;27.676;2023-07-22T10:18:01;0.38;;;0.38;;
64678;SDS011;51094;53.864;27.676;2023-07-22T10:20:29;0.40;;;0.40;;
64678;SDS011;51094;53.864;27.676;2023-07-22T10:22:57;0.43;;;0.43;;
64678;SDS011;51094;53.864;27.676;2023-07-22T10:25:25;0.60;;;0.60;;
64678;SDS011;51094;53.864;27.676;2023-07-22T10:27:52;0.30;;;0.30;;
64678;SDS011;51094;53.864;27.676;2023-07-22T10:30:19;0.40;;;0.40;;
64678;SDS011;51094;53.864;27.676;2023-07-22T10:32:47;0.40;;;0.40;;
64678;SDS011;51094;53.864;27.676;2023-07-22T10:37:49;0.40;;;0.40;;
64678;SDS011;51094;53.864;27.676;2023-07-22T10:43:05;0.40;;;0.40;;
64678;SDS011;51094;53.864;27.676;2023-07-22T10:45:34;0.40;;;0.40;;
64678;SDS011;51094;53.864;27.676;2023-07-22T10:48:11;0.40;;;0.40;;
64678;SDS011;51094;53.864;27.676;2023-07-22T10:50:43;0.30;;;0.30;;
64678;SDS011;51094;53.864;27.676;2023-07-22T11:06:37;0.35;;;0.35;;
64678;SDS011;51094;53.864;27.676;2023-07-22T11:09:06;0.35;;;0.35;;
64678;SDS011;51094;53.864;27.676;2023-07-22T11:11:37;0.30;;;0.30;;
64678;SDS011;51094;53.864;27.676;2023-07-22T11:14:18;0.45;;;0.45;;
64678;SDS011;51094;53.864;27.676;2023-07-22T11:16:47;0.40;;;0.40;;
64678;SDS011;51094;53.864;27.676;2023-07-22T11:22:45;0.40;;;0.40;;
64678;SDS011;51094;53.864;27.676;2023-07-22T11:25:16;0.50;;;0.50;;
64678;SDS011;51094;53.864;27.676;2023-07-22T11:27:44;0.47;;;0.47;;
64678;SDS011;51094;53.864;27.676;2023-07-22T11:30:12;0.50;;;0.50;;
64678;SDS011;51094;53.864;27.676;2023-07-22T11:32:41;0.50;;;0.50;;
64678;SDS011;51094;53.864;27.676;2023-07-22T11:35:10;0.50;;;0.50;;
64678;SDS011;51094;53.864;27.676;2023-07-22T11:37:37;0.40;;;0.40;;
64678;SDS011;51094;53.864;27.676;2023-07-22T11:40:04;0.60;;;0.60;;
64678;SDS011;51094;53.864;27.676;2023-07-22T11:42:33;0.40;;;0.40;;
64678;SDS011;51094;53.864;27.676;2023-07-22T11:45:01;0.40;;;0.40;;
64678;SDS011;51094;53.864;27.676;2023-07-22T11:47:29;0.50;;;0.50;;
64678;SDS011;51094;53.864;27.676;2023-07-22T11:49:59;0.52;;;0.52;;
64678;SDS011;51094;53.864;27.676;2023-07-22T11:52:27;0.60;;;0.60;;
64678;SDS011;51094;53.864;27.676;2023-07-22T11:54:54;0.63;;;0.63;;
64678;SDS011;51094;53.864;27.676;2023-07-22T11:57:28;0.60;;;0.60;;
64678;SDS011;51094;53.864;27.676;2023-07-22T11:59:56;0.57;;;0.57;;
64678;SDS011;51094;53.864;27.676;2023-07-22T12:02:25;0.60;;;0.60;;
64678;SDS011;51094;53.864;27.676;2023-07-22T12:05:00;0.55;;;0.55;;
64678;SDS011;51094;53.864;27.676;2023-07-22T12:07:32;0.70;;;0.70;;
64678;SDS011;51094;53.864;27.676;2023-07-22T12:10:05;0.60;;;0.60;;
64678;SDS011;51094;53.864;27.676;2023-07-22T12:12:34;0.57;;;0.57;;
64678;SDS011;51094;53.864;27.676;2023-07-22T12:17:55;0.70;;;0.70;;
64678;SDS011;51094;53.864;27.676;2023-07-22T12:20:29;0.75;;;0.75;;
64678;SDS011;51094;53.864;27.676;2023-07-22T12:23:00;0.60;;;0.60;;
64678;SDS011;51094;53.864;27.676;2023-07-22T12:25:27;0.70;;;0.70;;
64678;SDS011;51094;53.864;27.676;2023-07-22T12:27:54;0.70;;;0.70;;
64678;SDS011;51094;53.864;27.676;2023-07-22T12:30:21;0.80;;;0.80;;
64678;SDS011;51094;53.864;27.676;2023-07-22T12:32:48;0.70;;;0.70;;
64678;SDS011;51094;53.864;27.676;2023-07-22T12:35:15;0.80;;;0.80;;
64678;SDS011;51094;53.864;27.676;2023-07-22T12:37:43;0.95;;;0.95;;
64678;SDS011;51094;53.864;27.676;2023-07-22T12:40:10;0.90;;;0.90;;
64678;SDS011;51094;53.864;27.676;2023-07-22T12:42:40;1.20;;;1.20;;
64678;SDS011;51094;53.864;27.676;2023-07-22T12:45:08;1.77;;;1.77;;
64678;SDS011;51094;53.864;27.676;2023-07-22T12:47:35;1.65;;;1.65;;
64678;SDS011;51094;53.864;27.676;2023-07-22T12:50:04;1.75;;;1.75;;
64678;SDS011;51094;53.864;27.676;2023-07-22T12:52:35;1.30;;;1.30;;
64678;SDS011;51094;53.864;27.676;2023-07-22T12:55:05;1.30;;;1.30;;
64678;SDS011;51094;53.864;27.676;2023-07-22T12:57:32;1.15;;;1.15;;
64678;SDS011;51094;53.864;27.676;2023-07-22T12:59:59;1.30;;;1.30;;
64678;SDS011;51094;53.864;27.676;2023-07-22T13:02:26;1.40;;;1.40;;
64678;SDS011;51094;53.864;27.676;2023-07-22T13:04:53;1.30;;;1.30;;
64678;SDS011;51094;53.864;27.676;2023-07-22T13:07:20;1.10;;;1.10;;
64678;SDS011;51094;53.864;27.676;2023-07-22T13:09:47;1.10;;;1.10;;
64678;SDS011;51094;53.864;27.676;2023-07-22T13:12:23;1.10;;;1.10;;
64678;SDS011;51094;53.864;27.676;2023-07-22T13:14:50;1.20;;;1.20;;
64678;SDS011;51094;53.864;27.676;2023-07-22T13:17:16;1.15;;;1.15;;
64678;SDS011;51094;53.864;27.676;2023-07-22T13:19:44;0.90;;;0.90;;
64678;SDS011;51094;53.864;27.676;2023-07-22T13:22:10;1.05;;;1.05;;
64678;SDS011;51094;53.864;27.676;2023-07-22T13:24:37;1.08;;;1.08;;
64678;SDS011;51094;53.864;27.676;2023-07-22T13:27:04;1.08;;;1.08;;
64678;SDS011;51094;53.864;27.676;2023-07-22T13:29:33;1.10;;;1.10;;
64678;SDS011;51094;53.864;27.676;2023-07-22T13:32:00;1.00;;;1.00;;
64678;SDS011;51094;53.864;27.676;2023-07-22T13:34:27;0.98;;;0.98;;
64678;SDS011;51094;53.864;27.676;2023-07-22T13:36:54;5.15;;;5.05;;
64678;SDS011;51094;53.864;27.676;2023-07-22T13:39:21;1.10;;;1.10;;
64678;SDS011;51094;53.864;27.676;2023-07-22T13:41:48;0.90;;;0.90;;
64678;SDS011;51094;53.864;27.676;2023-07-22T13:44:15;1.00;;;1.00;;
64678;SDS011;51094;53.864;27.676;2023-07-22T13:46:42;0.93;;;0.93;;
64678;SDS011;51094;53.864;27.676;2023-07-22T13:49:09;1.20;;;1.20;;
64678;SDS011;51094;53.864;27.676;2023-07-22T13:51:36;1.30;;;1.30;;
64678;SDS011;51094;53.864;27.676;2023-07-22T13:54:03;1.50;;;1.50;;
64678;SDS011;51094;53.864;27.676;2023-07-22T13:56:30;1.58;;;1.58;;
64678;SDS011;51094;53.864;27.676;2023-07-22T13:58:57;1.50;;;1.50;;
64678;SDS011;51094;53.864;27.676;2023-07-22T14:01:25;1.45;;;1.45;;
64678;SDS011;51094;53.864;27.676;2023-07-22T14:03:53;1.40;;;1.40;;
64678;SDS011;51094;53.864;27.676;2023-07-22T14:06:20;1.45;;;1.45;;
64678;SDS011;51094;53.864;27.676;2023-07-22T14:08:47;1.48;;;1.48;;
64678;SDS011;51094;53.864;27.676;2023-07-22T14:11:14;1.80;;;1.80;;
64678;SDS011;51094;53.864;27.676;2023-07-22T14:13:41;1.63;;;1.63;;
64678;SDS011;51094;53.864;27.676;2023-07-22T14:16:08;1.70;;;1.70;;
64678;SDS011;51094;53.864;27.676;2023-07-22T14:18:48;1.77;;;1.77;;
64678;SDS011;51094;53.864;27.676;2023-07-22T14:21:15;1.73;;;1.73;;
64678;SDS011;51094;53.864;27.676;2023-07-22T14:23:42;1.35;;;1.35;;
64678;SDS011;51094;53.864;27.676;2023-07-22T14:26:10;1.70;;;1.70;;
64678;SDS011;51094;53.864;27.676;2023-07-22T14:28:38;1.55;;;1.55;;
64678;SDS011;51094;53.864;27.676;2023-07-22T14:31:05;1.70;;;1.70;;
64678;SDS011;51094;53.864;27.676;2023-07-22T14:33:32;1.50;;;1.50;;
64678;SDS011;51094;53.864;27.676;2023-07-22T14:35:58;1.25;;;1.25;;
64678;SDS011;51094;53.864;27.676;2023-07-22T14:38:25;1.23;;;1.23;;
64678;SDS011;51094;53.864;27.676;2023-07-22T14:40:52;1.30;;;1.30;;
64678;SDS011;51094;53.864;27.676;2023-07-22T14:43:19;1.30;;;1.30;;
64678;SDS011;51094;53.864;27.676;2023-07-22T14:45:48;1.40;;;1.40;;
64678;SDS011;51094;53.864;27.676;2023-07-22T14:48:15;1.40;;;1.40;;
64678;SDS011;51094;53.864;27.676;2023-07-22T14:50:42;1.60;;;1.60;;
64678;SDS011;51094;53.864;27.676;2023-07-22T14:53:09;2.38;;;2.30;;
64678;SDS011;51094;53.864;27.676;2023-07-22T14:55:36;2.50;;;2.40;;
64678;SDS011;51094;53.864;27.676;2023-07-22T14:58:03;2.17;;;2.10;;
64678;SDS011;51094;53.864;27.676;2023-07-22T15:00:30;2.80;;;2.70;;
64678;SDS011;51094;53.864;27.676;2023-07-22T15:02:57;2.70;;;2.60;;
64678;SDS011;51094;53.864;27.676;2023-07-22T15:05:24;2.97;;;2.88;;
64678;SDS011;51094;53.864;27.676;2023-07-22T15:07:51;2.85;;;2.75;;
64678;SDS011;51094;53.864;27.676;2023-07-22T15:10:18;2.50;;;2.40;;
64678;SDS011;51094;53.864;27.676;2023-07-22T15:12:45;2.22;;;2.20;;